Hot Springs County Information

FAA: HSG - ICAO: KHSG

Hot Springs County (Airport) Location

State Wyoming
County Hot Springs
City Thermopolis
Hot Springs County (Airport) is 10 miles northwest of Thermopolis, WY.
Latitude 43-42-49.0000N
Longitude 108-23-22.9000W
Elevation 4,891ft

Hot Springs County METARs

METAR KHSG 281455Z AUTO 00000KT 10SM CLR 00/M02 A3029 RMK AO2 T10031023
Altimeter 30.29"
Temperature -0.3°C (31.5°F)
Wind 0° at 0KT
Clouds Skies are clear.
Visibility 10.0mi
Time observed: 2021-10-28T14:55:00Z

Hot Springs County (Airport) Details

Status Operational
Activation September 2015
Ownership Public
Usage Public
Chart CHEYENNE
ATC on-site No
Beacon schedule sunset-sunrise
Beacon color clear green

Hot Springs County (Airport) Contacts

Owner HOT SPRINGS COUNTY
Owner address 415 ARAPAHOE, THERMOPOLIS, WY 82443
Owner phone (307) 864-3515
Manager CHAD NIELSON
Manager address 220 WYO HIWAY. 233, KEMMERER, WY 83101
Manager phone (307) 727-7865

Hot Springs County Radio Frequencies

Hot Springs County (Airport) Radio Frequencies

UNICOM 122.8
Common traffic advisory frequency (CTAF) 122.8